Time;durP1;ratioP1;P1;durP2;ratioP2;P2;SDS_P1;SDS_P2;PMS_P1;PMS_P2;Temp;Humidity;BMP_temperature;BMP_pressure;BME280_temperature;BME280_humidity;BME280_pressure;Samples;Min_cycle;Max_cycle;Signal;HPM_P1;HPM_P2
2022/10/26 00:01:19;;;;;;;24.80;15.05;;;10.60;93.30;;;;;;5052200;28;20048;-56
2022/10/26 00:03:46;;;;;;;24.05;15.80;;;10.60;93.30;;;;;;5051400;28;20048;-51
2022/10/26 00:06:19;;;;;;;22.13;14.32;;;10.60;93.20;;;;;;5033530;28;20052;-54
2022/10/26 00:08:47;;;;;;;25.77;15.27;;;10.50;93.20;;;;;;5047616;28;20035;-55
2022/10/26 00:11:16;;;;;;;23.40;15.30;;;10.50;93.20;;;;;;5053710;28;20036;-52
2022/10/26 00:13:44;;;;;;;18.98;15.05;;;10.50;93.20;;;;;;5013765;28;20108;-51
2022/10/26 00:16:14;;;;;;;18.60;14.38;;;10.50;93.30;;;;;;5032917;28;20346;-55
2022/10/26 00:18:45;;;;;;;22.58;15.52;;;10.50;93.30;;;;;;5025289;28;20033;-55
2022/10/26 00:21:12;;;;;;;17.48;15.25;;;10.50;93.20;;;;;;5044681;28;20519;-55
2022/10/26 00:23:39;;;;;;;20.65;15.23;;;10.40;93.20;;;;;;5050340;28;20025;-54
2022/10/26 00:26:06;;;;;;;23.98;15.65;;;10.40;93.20;;;;;;5042009;28;20090;-54
2022/10/26 00:28:36;;;;;;;19.25;14.35;;;10.40;93.20;;;;;;5026140;28;20108;-53
2022/10/26 00:31:06;;;;;;;21.50;15.15;;;10.40;93.30;;;;;;5053601;28;20120;-52
2022/10/26 00:33:31;;;;;;;22.25;17.08;;;10.40;93.30;;;;;;5030521;28;20037;-52
2022/10/26 00:35:58;;;;;;;20.25;14.30;;;10.40;93.40;;;;;;5042753;28;20511;-50
2022/10/26 00:38:25;;;;;;;23.35;16.55;;;10.40;93.40;;;;;;5045398;28;20040;-52
2022/10/26 00:40:52;;;;;;;22.52;15.85;;;10.40;93.50;;;;;;5037622;28;20037;-55
2022/10/26 00:43:20;;;;;;;22.35;15.30;;;10.40;93.50;;;;;;5021206;28;20095;-54
2022/10/26 00:45:53;;;;;;;18.60;13.70;;;10.40;93.40;;;;;;5035102;28;20037;-53
2022/10/26 00:48:26;;;;;;;21.70;14.40;;;10.40;93.40;;;;;;5036257;28;20056;-54
2022/10/26 00:50:54;;;;;;;19.83;14.77;;;10.30;93.30;;;;;;5052275;28;20031;-53
2022/10/26 00:53:20;;;;;;;15.30;13.40;;;10.30;93.30;;;;;;5052248;28;20475;-52
2022/10/26 00:55:51;;;;;;;26.17;15.95;;;10.30;93.30;;;;;;5036828;28;20040;-54
2022/10/26 00:58:17;;;;;;;17.08;14.90;;;10.30;93.30;;;;;;5052351;28;20067;-54
2022/10/26 01:00:43;;;;;;;19.90;16.05;;;10.30;93.30;;;;;;5050757;28;20223;-56
2022/10/26 01:03:11;;;;;;;27.40;16.17;;;10.20;93.30;;;;;;5033802;28;20086;-52
2022/10/26 01:05:40;;;;;;;26.25;15.98;;;10.20;93.30;;;;;;5051462;28;20212;-53
2022/10/26 01:08:08;;;;;;;24.55;15.25;;;10.20;93.30;;;;;;5051948;28;20025;-54
2022/10/26 01:10:40;;;;;;;18.55;14.88;;;10.20;93.30;;;;;;5040326;28;20038;-52
2022/10/26 01:13:08;;;;;;;23.85;16.08;;;10.20;93.40;;;;;;5036760;28;20342;-54
2022/10/26 01:15:51;;;;;;;26.77;17.90;;;10.20;93.50;;;;;;5049138;28;20497;-56
2022/10/26 01:18:55;;;;;;;24.10;16.60;;;10.20;93.50;;;;;;5052070;28;20043;-52
2022/10/26 01:21:51;;;;;;;26.50;17.25;;;10.20;93.60;;;;;;5051160;28;20033;-52
2022/10/26 01:25:00;;;;;;;24.85;16.42;;;10.20;93.60;;;;;;5051003;28;20430;-53
2022/10/26 01:27:46;;;;;;;24.40;17.17;;;10.30;93.60;;;;;;5040747;28;20091;-53
2022/10/26 01:30:44;;;;;;;26.15;15.60;;;10.30;93.60;;;;;;5054938;28;20032;-54
2022/10/26 01:33:43;;;;;;;22.77;15.90;;;10.30;93.60;;;;;;5054688;28;20029;-52
2022/10/26 01:36:39;;;;;;;24.52;15.82;;;10.20;93.60;;;;;;5055123;28;20021;-56
2022/10/26 01:39:09;;;;;;;28.48;17.48;;;10.20;93.70;;;;;;5055513;28;20370;-55
2022/10/26 01:41:52;;;;;;;22.98;17.02;;;10.20;93.70;;;;;;5027456;28;20068;-53
2022/10/26 01:44:35;;;;;;;24.02;16.13;;;10.20;93.60;;;;;;5050916;28;20017;-55
2022/10/26 01:47:03;;;;;;;26.50;16.67;;;10.20;93.60;;;;;;5054178;28;20078;-54
2022/10/26 01:49:38;;;;;;;21.77;15.85;;;10.20;93.60;;;;;;5055238;28;20053;-55
2022/10/26 01:52:05;;;;;;;23.88;16.33;;;10.10;93.60;;;;;;5038596;28;20053;-53
2022/10/26 01:54:35;;;;;;;25.23;17.45;;;10.10;93.60;;;;;;5036569;28;20035;-51
2022/10/26 01:57:06;;;;;;;31.90;17.98;;;10.20;93.70;;;;;;5054711;28;20036;-52
2022/10/26 01:59:59;;;;;;;23.65;16.38;;;10.10;93.60;;;;;;5054272;28;20025;-53
2022/10/26 02:02:49;;;;;;;27.83;17.63;;;10.10;93.60;;;;;;5038472;28;20033;-56
2022/10/26 02:05:52;;;;;;;21.40;16.52;;;10.10;93.60;;;;;;5053747;28;20029;-56
2022/10/26 02:08:39;;;;;;;21.00;16.33;;;10.10;93.50;;;;;;5053889;28;20116;-56
2022/10/26 02:11:30;;;;;;;26.50;19.17;;;10.10;93.60;;;;;;5041167;28;20104;-56
2022/10/26 02:14:26;;;;;;;23.63;16.27;;;10.00;93.60;;;;;;5045500;28;20351;-56
2022/10/26 02:16:55;;;;;;;25.30;16.52;;;10.00;93.50;;;;;;5025154;28;20030;-54
2022/10/26 02:20:01;;;;;;;28.42;16.98;;;10.00;93.60;;;;;;5028393;28;20021;-56
2022/10/26 02:22:46;;;;;;;24.48;16.63;;;10.00;93.60;;;;;;5046726;28;20398;-53
2022/10/26 02:25:22;;;;;;;23.23;16.88;;;9.90;93.50;;;;;;5015839;28;20443;-56
2022/10/26 02:28:01;;;;;;;21.70;15.57;;;9.90;93.50;;;;;;5042689;28;20029;-55
2022/10/26 02:30:29;;;;;;;22.50;16.33;;;9.90;93.50;;;;;;5050013;28;20029;-53
2022/10/26 02:32:57;;;;;;;23.65;17.17;;;9.90;93.50;;;;;;5004231;28;20025;-54
2022/10/26 02:35:29;;;;;;;27.67;16.88;;;9.90;93.50;;;;;;5039788;28;20030;-54
2022/10/26 02:38:00;;;;;;;27.60;17.00;;;9.90;93.50;;;;;;4981715;28;20052;-55
2022/10/26 02:40:28;;;;;;;20.00;15.55;;;9.80;93.40;;;;;;5014912;28;20052;-54
2022/10/26 02:42:59;;;;;;;26.23;16.70;;;9.80;93.50;;;;;;5018166;28;20430;-52
2022/10/26 02:45:32;;;;;;;24.42;16.83;;;9.80;93.50;;;;;;5053668;28;20056;-56
2022/10/26 02:48:00;;;;;;;22.60;17.40;;;9.80;93.50;;;;;;5029792;28;20466;-55
2022/10/26 02:50:47;;;;;;;23.23;15.73;;;9.80;93.50;;;;;;5047311;28;20033;-56
2022/10/26 02:53:33;;;;;;;19.95;16.42;;;9.80;93.50;;;;;;5054816;28;20029;-54
2022/10/26 02:56:07;;;;;;;23.48;16.83;;;9.80;93.60;;;;;;5055217;28;20497;-55
2022/10/26 02:58:39;;;;;;;24.55;17.35;;;9.80;93.60;;;;;;5048277;28;20472;-54
2022/10/26 03:01:07;;;;;;;24.10;16.58;;;9.80;93.60;;;;;;5036483;28;20037;-56
2022/10/26 03:03:34;;;;;;;24.75;17.67;;;9.80;93.60;;;;;;5042216;28;20473;-54
2022/10/26 03:06:00;;;;;;;28.08;16.92;;;9.80;93.60;;;;;;5052301;28;20036;-56
2022/10/26 03:08:27;;;;;;;24.40;18.48;;;9.80;93.60;;;;;;5051456;28;20020;-57
2022/10/26 03:10:53;;;;;;;22.25;19.20;;;9.80;93.50;;;;;;5051425;28;20021;-54
2022/10/26 03:13:19;;;;;;;26.80;17.20;;;9.70;93.50;;;;;;5043614;28;20029;-54
2022/10/26 03:15:45;;;;;;;25.30;18.05;;;9.70;93.50;;;;;;5046859;28;20041;-55
2022/10/26 03:18:15;;;;;;;22.15;17.35;;;9.70;93.60;;;;;;5026963;28;20025;-56
2022/10/26 03:20:43;;;;;;;22.38;16.70;;;9.70;93.60;;;;;;5032966;28;20117;-56
2022/10/26 03:23:11;;;;;;;24.13;18.08;;;9.70;93.60;;;;;;5045320;28;20075;-58
2022/10/26 03:25:38;;;;;;;20.88;16.80;;;9.70;93.60;;;;;;5029148;28;20045;-57
2022/10/26 03:28:11;;;;;;;20.02;17.05;;;9.70;93.50;;;;;;5048496;28;20041;-56
2022/10/26 03:30:38;;;;;;;24.23;16.90;;;9.70;93.50;;;;;;5048499;28;20025;-58
2022/10/26 03:33:04;;;;;;;23.73;17.42;;;9.70;93.60;;;;;;5054039;28;20354;-56
2022/10/26 03:35:34;;;;;;;30.02;20.55;;;9.70;93.60;;;;;;5052851;28;20104;-59
2022/10/26 03:38:00;;;;;;;22.48;17.20;;;9.70;93.70;;;;;;5054371;28;20029;-56
2022/10/26 03:40:27;;;;;;;23.63;18.27;;;9.70;93.70;;;;;;5050998;28;20032;-57
2022/10/26 03:42:55;;;;;;;22.27;18.05;;;9.60;93.70;;;;;;5008714;28;20097;-58
2022/10/26 03:45:22;;;;;;;27.88;18.23;;;9.70;93.70;;;;;;5028628;28;20037;-58
2022/10/26 03:47:48;;;;;;;30.77;20.52;;;9.70;93.60;;;;;;5033845;28;20033;-58
2022/10/26 03:50:19;;;;;;;23.55;17.95;;;9.70;93.70;;;;;;5037851;28;20033;-54
2022/10/26 03:52:46;;;;;;;23.58;18.25;;;9.70;93.60;;;;;;5019893;28;20029;-56
2022/10/26 03:55:13;;;;;;;27.10;20.08;;;9.70;93.70;;;;;;5054053;28;20098;-58
2022/10/26 03:57:44;;;;;;;27.77;18.67;;;9.60;93.60;;;;;;5035340;28;20087;-57
2022/10/26 04:00:16;;;;;;;27.73;20.52;;;9.60;93.60;;;;;;5053917;28;20032;-58
2022/10/26 04:02:46;;;;;;;28.73;19.45;;;9.60;93.60;;;;;;5053172;28;20642;-56
2022/10/26 04:05:15;;;;;;;30.50;21.35;;;9.60;93.70;;;;;;5035034;28;20041;-58
2022/10/26 04:07:42;;;;;;;25.50;19.63;;;9.60;93.70;;;;;;5045623;28;20406;-58
2022/10/26 04:10:09;;;;;;;30.83;21.52;;;9.60;93.70;;;;;;5035802;28;20025;-58
2022/10/26 04:12:39;;;;;;;29.38;21.00;;;9.70;93.80;;;;;;5033629;28;20040;-57
2022/10/26 04:15:06;;;;;;;32.47;21.60;;;9.70;93.80;;;;;;5034419;28;20033;-59
2022/10/26 04:17:33;;;;;;;30.00;21.33;;;9.70;93.80;;;;;;5052729;28;20033;-56
2022/10/26 04:20:04;;;;;;;30.25;23.08;;;9.70;93.80;;;;;;5033721;28;20024;-57
2022/10/26 04:22:34;;;;;;;32.08;20.73;;;9.70;93.80;;;;;;5049714;28;20430;-57
2022/10/26 04:25:00;;;;;;;33.40;23.40;;;9.60;93.70;;;;;;5052614;28;20063;-57
2022/10/26 04:27:26;;;;;;;33.20;21.30;;;9.60;93.80;;;;;;5035017;28;20028;-57
2022/10/26 04:29:53;;;;;;;33.00;23.17;;;9.70;93.80;;;;;;5036325;28;20350;-58
2022/10/26 04:32:23;;;;;;;36.95;23.73;;;9.70;93.80;;;;;;5052140;28;20025;-58
2022/10/26 04:34:52;;;;;;;31.52;22.30;;;9.70;93.90;;;;;;5052468;28;20040;-58
2022/10/26 04:37:21;;;;;;;30.25;23.10;;;9.70;93.80;;;;;;5052055;28;20033;-57
2022/10/26 04:39:48;;;;;;;32.05;23.05;;;9.70;93.90;;;;;;5052625;28;20037;-58
2022/10/26 04:42:17;;;;;;;32.60;23.08;;;9.70;93.90;;;;;;5052745;28;20112;-55
2022/10/26 04:44:44;;;;;;;38.65;25.10;;;9.70;93.90;;;;;;5051763;28;20044;-59
2022/10/26 04:47:10;;;;;;;30.05;23.30;;;9.70;94.00;;;;;;5053072;28;20120;-58
2022/10/26 04:49:36;;;;;;;30.33;23.75;;;9.80;94.00;;;;;;5051223;28;20128;-59
2022/10/26 04:52:05;;;;;;;33.28;24.95;;;9.70;93.90;;;;;;5043702;28;20021;-59
2022/10/26 04:54:31;;;;;;;30.92;22.92;;;9.80;94.00;;;;;;5052004;28;20082;-58
2022/10/26 04:57:03;;;;;;;33.30;23.60;;;9.70;93.90;;;;;;5052064;28;20084;-59
2022/10/26 04:59:30;;;;;;;33.67;24.58;;;9.70;93.90;;;;;;5051082;28;20037;-57
2022/10/26 05:01:57;;;;;;;38.03;25.45;;;9.70;93.90;;;;;;5027598;28;20025;-58
2022/10/26 05:04:27;;;;;;;33.35;25.08;;;9.70;93.90;;;;;;5047525;28;20033;-59
2022/10/26 05:06:55;;;;;;;33.70;23.90;;;9.60;93.80;;;;;;5055708;28;20025;-56
2022/10/26 05:09:22;;;;;;;36.63;24.85;;;9.60;93.90;;;;;;5056336;28;20051;-58
2022/10/26 05:11:48;;;;;;;33.08;23.27;;;9.70;93.90;;;;;;5055368;28;20032;-58
2022/10/26 05:14:16;;;;;;;35.78;24.08;;;9.60;93.90;;;;;;5055915;28;20095;-58
2022/10/26 05:16:43;;;;;;;33.75;23.88;;;9.60;93.80;;;;;;5056615;28;20029;-60
2022/10/26 05:19:10;;;;;;;34.40;23.58;;;9.50;93.80;;;;;;5043362;28;20466;-59
2022/10/26 05:21:37;;;;;;;37.53;25.40;;;9.60;93.90;;;;;;5050087;28;20115;-57
2022/10/26 05:24:04;;;;;;;32.58;24.52;;;9.60;93.90;;;;;;5038185;28;20763;-59
2022/10/26 05:26:31;;;;;;;35.35;23.75;;;9.60;93.90;;;;;;5054472;28;20029;-59
2022/10/26 05:28:57;;;;;;;34.53;24.73;;;9.60;93.90;;;;;;5055705;28;20056;-59
2022/10/26 05:31:24;;;;;;;41.08;26.38;;;9.60;94.00;;;;;;5037820;28;20064;-59
2022/10/26 05:33:51;;;;;;;39.42;25.65;;;9.60;94.00;;;;;;5049663;28;20037;-59
2022/10/26 05:36:18;;;;;;;37.00;24.88;;;9.60;94.00;;;;;;5040996;28;20037;-60
2022/10/26 05:38:45;;;;;;;41.75;26.05;;;9.60;94.00;;;;;;5055217;28;20021;-60
2022/10/26 05:41:12;;;;;;;36.13;25.48;;;9.60;94.00;;;;;;5055226;28;20048;-60
2022/10/26 05:43:38;;;;;;;36.97;26.60;;;9.60;93.90;;;;;;5055543;28;20025;-59
2022/10/26 05:46:05;;;;;;;37.17;26.02;;;9.60;93.90;;;;;;5045901;28;20037;-59
2022/10/26 05:48:35;;;;;;;34.83;25.58;;;9.60;93.90;;;;;;5021134;28;20045;-60
2022/10/26 05:51:01;;;;;;;37.15;24.10;;;9.60;93.90;;;;;;5036668;28;20377;-60
2022/10/26 05:53:28;;;;;;;40.03;23.77;;;9.60;93.90;;;;;;5034506;28;20041;-60
2022/10/26 05:55:55;;;;;;;34.78;23.70;;;9.60;93.90;;;;;;5018307;28;20065;-61
2022/10/26 05:58:25;;;;;;;38.08;25.60;;;9.50;93.90;;;;;;5035465;28;20095;-59
2022/10/26 06:01:20;;;;;;;36.83;24.45;;;9.50;93.90;;;;;;5018004;28;20124;-60
2022/10/26 06:03:51;;;;;;;31.73;22.42;;;9.50;93.90;;;;;;5017906;28;20025;-60
2022/10/26 06:06:21;;;;;;;37.13;24.55;;;9.50;93.90;;;;;;5035519;28;20033;-60
2022/10/26 06:08:47;;;;;;;;;;;9.50;93.80;;;;;;5034648;28;20091;-60
2022/10/26 06:11:14;;;;;;;29.58;20.40;;;9.50;93.90;;;;;;5035407;28;19909;-59
2022/10/26 06:13:43;;;;;;;30.92;22.80;;;9.50;93.80;;;;;;5034003;28;20032;-60
2022/10/26 06:16:32;;;;;;;29.55;21.23;;;9.40;93.70;;;;;;5010365;28;20030;-60
2022/10/26 06:19:21;;;;;;;29.65;20.33;;;9.40;93.60;;;;;;5024732;28;20033;-60
2022/10/26 06:22:14;;;;;;;28.10;20.90;;;9.30;93.50;;;;;;5029062;28;20052;-60
2022/10/26 06:25:04;;;;;;;30.10;21.67;;;9.20;93.50;;;;;;5034635;28;20183;-58
2022/10/26 06:28:07;;;;;;;30.65;20.80;;;9.20;93.50;;;;;;5034076;28;20454;-60
2022/10/26 06:30:33;;;;;;;30.52;21.55;;;9.20;93.60;;;;;;5009589;28;20095;-58
2022/10/26 06:33:00;;;;;;;31.27;21.08;;;9.30;93.80;;;;;;5033672;28;20024;-59
2022/10/26 06:35:42;;;;;;;35.78;22.70;;;9.30;93.80;;;;;;5034720;28;20136;-59
2022/10/26 06:38:16;;;;;;;32.65;21.50;;;9.40;93.90;;;;;;5034234;28;20331;-60
2022/10/26 06:40:46;;;;;;;31.33;21.73;;;9.40;93.90;;;;;;5033401;28;20021;-58
2022/10/26 06:43:26;;;;;;;37.38;21.73;;;9.50;94.00;;;;;;5034171;28;20049;-59
2022/10/26 06:46:16;;;;;;;37.40;22.35;;;9.50;94.00;;;;;;5033265;28;20029;-58
2022/10/26 06:49:01;;;;;;;29.45;21.77;;;9.60;94.00;;;;;;5034652;28;20053;-56
2022/10/26 06:51:29;;;;;;;33.22;22.55;;;9.60;94.00;;;;;;5047864;28;20427;-59
2022/10/26 06:54:17;;;;;;;28.63;22.02;;;9.60;94.10;;;;;;5028844;28;20025;-57
2022/10/26 06:56:45;;;;;;;33.63;21.80;;;9.70;94.00;;;;;;5053342;28;20036;-59
2022/10/26 06:59:24;;;;;;;35.38;24.23;;;9.70;94.10;;;;;;5052467;28;20033;-59
2022/10/26 07:01:53;;;;;;;31.73;21.30;;;9.80;94.10;;;;;;5043592;28;20436;-59
2022/10/26 07:04:23;;;;;;;34.13;22.90;;;9.80;94.10;;;;;;5049455;28;20441;-59
2022/10/26 07:06:55;;;;;;;34.17;21.92;;;9.80;94.10;;;;;;5040874;28;20068;-59
2022/10/26 07:09:22;;;;;;;35.10;22.55;;;9.90;94.10;;;;;;5035473;28;20470;-60
2022/10/26 07:11:49;;;;;;;30.45;22.10;;;9.80;94.00;;;;;;5047903;28;20350;-58
2022/10/26 07:14:18;;;;;;;34.30;22.98;;;9.90;94.00;;;;;;5037334;28;20056;-58
2022/10/26 07:16:45;;;;;;;32.70;21.48;;;9.90;94.00;;;;;;5034474;28;20029;-55
2022/10/26 07:19:11;;;;;;;35.33;22.35;;;9.90;94.00;;;;;;5023637;28;20052;-58
2022/10/26 07:21:38;;;;;;;28.95;22.77;;;9.90;94.00;;;;;;5036806;28;20071;-59
2022/10/26 07:24:05;;;;;;;29.63;21.90;;;9.90;94.00;;;;;;5052950;28;20033;-58
2022/10/26 07:26:31;;;;;;;30.83;22.27;;;9.90;94.00;;;;;;5042696;28;20037;-58
2022/10/26 07:28:58;;;;;;;30.73;20.55;;;10.00;94.00;;;;;;5050147;28;20407;-58
2022/10/26 07:31:25;;;;;;;31.23;21.13;;;10.00;94.00;;;;;;5029304;28;20025;-59
2022/10/26 07:33:55;;;;;;;32.25;20.52;;;10.00;94.00;;;;;;5050302;28;20021;-58
2022/10/26 07:36:21;;;;;;;31.90;21.45;;;10.10;94.10;;;;;;5046692;28;20033;-58
2022/10/26 07:38:52;;;;;;;28.73;19.75;;;10.10;94.10;;;;;;5035580;28;20044;-56
2022/10/26 07:41:19;;;;;;;29.05;20.63;;;10.20;94.10;;;;;;5047278;28;20044;-57
2022/10/26 07:43:45;;;;;;;34.13;19.95;;;10.30;94.10;;;;;;5044683;28;20029;-56
2022/10/26 07:46:12;;;;;;;26.40;19.15;;;10.40;94.10;;;;;;5050947;28;20033;-54
2022/10/26 07:48:38;;;;;;;26.25;18.27;;;10.50;94.00;;;;;;5050771;28;20045;-56
2022/10/26 07:51:05;;;;;;;27.67;18.67;;;10.60;93.90;;;;;;5045048;28;20088;-54
2022/10/26 07:53:32;;;;;;;25.27;18.20;;;10.70;93.90;;;;;;5054071;28;20033;-52
2022/10/26 07:56:01;;;;;;;24.67;16.92;;;10.90;93.90;;;;;;5049765;28;20111;-51
2022/10/26 07:58:29;;;;;;;20.47;17.27;;;11.00;93.80;;;;;;5042863;28;20045;-49
2022/10/26 08:00:56;;;;;;;22.00;15.07;;;11.20;93.50;;;;;;5048383;28;20032;-49
2022/10/26 08:03:22;;;;;;;20.58;15.13;;;11.40;93.50;;;;;;5045096;28;20029;-49
2022/10/26 08:05:52;;;;;;;16.35;12.55;;;11.40;93.00;;;;;;5048917;28;20432;-48
2022/10/26 08:08:24;;;;;;;18.15;12.32;;;11.50;92.80;;;;;;5013774;28;20502;-48
2022/10/26 08:10:51;;;;;;;19.13;14.25;;;11.60;92.30;;;;;;5042720;28;20406;-48
2022/10/26 08:13:19;;;;;;;15.55;11.68;;;11.70;92.10;;;;;;5042208;28;20040;-48
2022/10/26 08:15:46;;;;;;;14.45;10.80;;;11.80;91.80;;;;;;5021777;28;20104;-47
2022/10/26 08:18:13;;;;;;;17.33;11.23;;;12.00;91.60;;;;;;5041190;28;20116;-47
2022/10/26 08:20:40;;;;;;;17.17;10.32;;;12.20;91.40;;;;;;5033294;28;20030;-47
2022/10/26 08:23:07;;;;;;;15.57;10.75;;;12.20;90.90;;;;;;5033089;28;20029;-47
2022/10/26 08:25:34;;;;;;;13.55;10.55;;;12.20;90.60;;;;;;5041174;28;20190;-46
2022/10/26 08:28:02;;;;;;;15.00;9.80;;;12.30;90.40;;;;;;5038613;28;20021;-48
2022/10/26 08:30:30;;;;;;;14.25;9.48;;;12.40;90.30;;;;;;5051728;28;20035;-47
2022/10/26 08:33:07;;;;;;;13.13;9.30;;;12.40;90.00;;;;;;5047453;28;20026;-46
2022/10/26 08:35:34;;;;;;;11.32;8.65;;;12.40;90.10;;;;;;5050520;28;20098;-46
2022/10/26 08:38:00;;;;;;;16.60;9.88;;;12.60;90.30;;;;;;5052017;28;20107;-48
2022/10/26 08:40:34;;;;;;;16.88;9.35;;;12.80;90.10;;;;;;5051938;28;20108;-47
2022/10/26 08:43:26;;;;;;;15.05;9.15;;;12.90;89.70;;;;;;5040366;28;20064;-47
2022/10/26 08:46:10;;;;;;;13.23;8.65;;;12.90;89.00;;;;;;5052380;28;20036;-46
2022/10/26 08:48:48;;;;;;;15.70;8.55;;;12.90;88.90;;;;;;5027825;28;20048;-47
2022/10/26 08:51:20;;;;;;;12.60;9.13;;;12.90;88.70;;;;;;5034047;28;20330;-47
2022/10/26 08:53:53;;;;;;;10.80;8.32;;;12.90;89.00;;;;;;5052591;28;20449;-47
2022/10/26 08:56:39;;;;;;;10.25;8.50;;;13.00;89.40;;;;;;5034376;28;20040;-47
2022/10/26 08:59:29;;;;;;;15.13;8.65;;;13.20;89.50;;;;;;5052148;28;20029;-47
2022/10/26 09:01:56;;;;;;;12.77;7.53;;;13.40;88.80;;;;;;5047075;28;20025;-47
2022/10/26 09:04:27;;;;;;;11.75;8.30;;;13.60;88.50;;;;;;5034261;28;20082;-48
2022/10/26 09:07:28;;;;;;;10.10;7.53;;;13.80;88.20;;;;;;5046913;28;20025;-47
2022/10/26 09:10:14;;;;;;;10.57;6.05;;;13.90;87.40;;;;;;5034727;28;20115;-47
2022/10/26 09:12:58;;;;;;;9.45;6.35;;;14.20;86.60;;;;;;5044334;28;20033;-47
2022/10/26 09:15:43;;;;;;;11.85;6.85;;;14.30;85.60;;;;;;5050106;28;20465;-48
2022/10/26 09:18:34;;;;;;;6.90;5.32;;;14.40;84.80;;;;;;5051775;28;20041;-47
2022/10/26 09:21:20;;;;;;;10.30;5.68;;;14.60;85.40;;;;;;5035259;28;20435;-49
2022/10/26 09:24:04;;;;;;;8.60;4.70;;;14.70;84.50;;;;;;5051604;28;20082;-48
2022/10/26 09:26:43;;;;;;;9.70;5.18;;;14.90;84.30;;;;;;5052729;28;20029;-48
2022/10/26 09:29:13;;;;;;;7.35;5.53;;;14.90;83.40;;;;;;5051939;28;20036;-48
2022/10/26 09:31:43;;;;;;;11.75;5.88;;;15.00;83.70;;;;;;5051755;28;20025;-51
2022/10/26 09:34:36;;;;;;;7.50;5.32;;;15.00;82.70;;;;;;5033881;28;20365;-48
2022/10/26 09:37:21;;;;;;;7.10;5.82;;;15.10;82.30;;;;;;5032830;28;20112;-50
2022/10/26 09:40:15;;;;;;;8.25;4.78;;;15.10;82.90;;;;;;5032722;28;20390;-48
2022/10/26 09:43:01;;;;;;;6.90;4.88;;;15.00;81.90;;;;;;5020434;28;20513;-48
2022/10/26 09:45:40;;;;;;;8.52;4.97;;;14.90;82.10;;;;;;5052070;28;20041;-49
2022/10/26 09:48:34;;;;;;;6.18;4.47;;;15.00;82.40;;;;;;5051545;28;20028;-49
2022/10/26 09:51:01;;;;;;;9.45;4.50;;;15.00;82.20;;;;;;5036859;28;20427;-50
2022/10/26 09:53:28;;;;;;;5.50;3.85;;;15.10;81.20;;;;;;5036505;28;20048;-48
2022/10/26 09:56:09;;;;;;;5.72;3.65;;;15.20;81.50;;;;;;5034290;28;20025;-48
2022/10/26 09:58:42;;;;;;;5.88;3.85;;;15.20;81.00;;;;;;5035054;28;20160;-48
2022/10/26 10:01:31;;;;;;;8.13;4.57;;;15.30;80.70;;;;;;5034690;28;20041;-49
2022/10/26 10:04:12;;;;;;;7.65;4.38;;;15.40;81.00;;;;;;5036219;28;20034;-48
2022/10/26 10:06:40;;;;;;;6.07;4.10;;;15.50;80.70;;;;;;5034892;28;20477;-49
2022/10/26 10:09:24;;;;;;;7.85;3.50;;;15.60;80.20;;;;;;5035983;28;20451;-48
2022/10/26 10:12:18;;;;;;;11.77;5.07;;;15.60;80.20;;;;;;5033875;28;20742;-49
2022/10/26 10:14:56;;;;;;;6.80;4.43;;;15.70;80.60;;;;;;5016085;28;20026;-50
2022/10/26 10:17:24;;;;;;;6.57;4.22;;;15.70;79.90;;;;;;5016136;28;20376;-49
2022/10/26 10:19:53;;;;;;;5.00;3.97;;;15.60;80.20;;;;;;5023158;28;20458;-49
2022/10/26 10:22:24;;;;;;;7.50;4.18;;;15.50;81.00;;;;;;5034800;28;20064;-48
2022/10/26 10:25:20;;;;;;;6.70;4.65;;;15.60;81.20;;;;;;5034556;28;20034;-48
2022/10/26 10:27:54;;;;;;;7.45;4.55;;;15.70;80.50;;;;;;5034705;28;20036;-50
2022/10/26 10:30:27;;;;;;;6.15;4.82;;;15.70;80.20;;;;;;5018968;28;20036;-48
2022/10/26 10:33:14;;;;;;;6.65;5.43;;;15.80;80.50;;;;;;5013663;28;20499;-48
2022/10/26 10:35:50;;;;;;;9.30;4.78;;;15.90;80.60;;;;;;5026824;28;20052;-50
2022/10/26 10:38:20;;;;;;;7.35;5.25;;;15.90;81.20;;;;;;5035560;28;20021;-49
2022/10/26 10:40:58;;;;;;;8.27;5.78;;;15.90;80.50;;;;;;5035586;28;20355;-53
2022/10/26 10:43:26;;;;;;;7.47;5.82;;;16.00;80.10;;;;;;5033970;28;20443;-49
2022/10/26 10:45:58;;;;;;;10.02;6.53;;;16.00;80.40;;;;;;5035340;28;20079;-48
2022/10/26 10:48:27;;;;;;;9.35;5.97;;;16.10;80.30;;;;;;5018387;28;20052;-48
2022/10/26 10:51:11;;;;;;;9.90;7.00;;;16.00;80.20;;;;;;5035869;28;20426;-48
2022/10/26 10:53:55;;;;;;;7.85;5.70;;;16.00;80.90;;;;;;5034312;28;20033;-48
2022/10/26 10:56:41;;;;;;;8.80;5.53;;;16.10;80.90;;;;;;5033115;28;20112;-49
2022/10/26 10:59:49;;;;;;;8.57;5.43;;;16.20;80.90;;;;;;5034821;28;20494;-48
2022/10/26 11:02:44;;;;;;;9.73;5.97;;;16.20;81.40;;;;;;5017678;28;20033;-48
2022/10/26 11:05:21;;;;;;;8.70;6.05;;;16.40;81.20;;;;;;5033802;28;20131;-51
2022/10/26 11:07:56;;;;;;;9.55;6.47;;;16.30;80.60;;;;;;5033804;28;20067;-49
2022/10/26 11:10:26;;;;;;;11.52;6.78;;;16.40;81.20;;;;;;5034812;28;20037;-48
2022/10/26 11:13:15;;;;;;;11.27;7.25;;;16.50;81.10;;;;;;5032615;28;20649;-49
2022/10/26 11:15:46;;;;;;;9.60;5.50;;;16.70;81.00;;;;;;5014205;28;20048;-50
2022/10/26 11:18:29;;;;;;;10.77;5.85;;;16.80;80.40;;;;;;5014946;28;20045;-48
2022/10/26 11:21:20;;;;;;;9.45;6.07;;;16.90;80.50;;;;;;5029608;28;20785;-48
2022/10/26 11:24:09;;;;;;;13.40;6.15;;;16.90;81.00;;;;;;5034853;28;20044;-49
2022/10/26 11:26:57;;;;;;;;;;;16.90;80.00;;;;;;5034255;28;20022;-48
2022/10/26 11:29:59;;;;;;;8.55;5.95;;;16.90;80.30;;;;;;5029336;28;19913;-48
2022/10/26 11:32:44;;;;;;;16.10;6.82;;;16.80;80.40;;;;;;5014226;28;20030;-48
2022/10/26 11:35:23;;;;;;;12.18;6.70;;;16.90;80.50;;;;;;5028746;28;20029;-48
2022/10/26 11:38:08;;;;;;;9.82;5.88;;;16.90;80.90;;;;;;5033863;28;20443;-48
2022/10/26 11:41:03;;;;;;;8.95;6.00;;;16.90;80.20;;;;;;5032975;28;20025;-48
2022/10/26 11:44:39;;;;;;;10.30;6.10;;;16.90;80.00;;;;;;5012909;28;20030;-48
2022/10/26 11:47:34;;;;;;;6.80;4.97;;;16.90;80.50;;;;;;4960421;28;20046;-48
2022/10/26 11:50:16;;;;;;;7.65;5.72;;;16.90;80.70;;;;;;5031466;28;20187;-48
2022/10/26 11:53:00;;;;;;;6.88;5.43;;;16.90;81.20;;;;;;5016514;28;20037;-48
2022/10/26 11:55:28;;;;;;;8.60;5.13;;;16.90;81.30;;;;;;5032983;28;20028;-48
2022/10/26 11:57:55;;;;;;;9.88;5.90;;;16.90;80.30;;;;;;5024625;28;20018;-48
2022/10/26 12:00:22;;;;;;;7.55;5.32;;;17.00;80.50;;;;;;5033095;28;20025;-48
2022/10/26 12:03:22;;;;;;;8.88;5.13;;;17.10;80.20;;;;;;5033078;28;20048;-49
2022/10/26 12:05:53;;;;;;;7.43;4.97;;;17.20;79.00;;;;;;5016956;28;20048;-49
2022/10/26 12:08:32;;;;;;;8.65;5.00;;;17.30;79.30;;;;;;5033855;28;20017;-48
2022/10/26 12:11:27;;;;;;;8.32;5.10;;;17.30;79.50;;;;;;5030122;28;20462;-48
2022/10/26 12:14:14;;;;;;;6.80;5.20;;;17.30;79.30;;;;;;5015189;28;20095;-48
2022/10/26 12:17:06;;;;;;;8.15;4.65;;;17.40;78.90;;;;;;5032627;28;20084;-48
2022/10/26 12:19:54;;;;;;;9.82;4.72;;;17.30;78.70;;;;;;5033701;28;20029;-48
2022/10/26 12:22:24;;;;;;;6.20;4.13;;;17.20;78.90;;;;;;5032400;28;20044;-48
2022/10/26 12:25:15;;;;;;;7.68;4.03;;;17.20;78.80;;;;;;5033512;28;20029;-49
2022/10/26 12:27:43;;;;;;;6.38;3.78;;;17.30;78.40;;;;;;5012433;28;20140;-48
2022/10/26 12:30:21;;;;;;;7.00;3.78;;;17.30;78.30;;;;;;5032631;28;20037;-49
2022/10/26 12:33:24;;;;;;;6.70;4.28;;;17.40;78.60;;;;;;5033612;28;20029;-48
2022/10/26 12:35:51;;;;;;;8.40;4.97;;;17.40;78.70;;;;;;5032516;28;20033;-48
2022/10/26 12:38:46;;;;;;;12.68;5.40;;;17.40;78.10;;;;;;5032339;28;20030;-49
2022/10/26 12:41:32;;;;;;;6.57;3.80;;;17.40;78.30;;;;;;5024403;28;20160;-48
2022/10/26 12:44:22;;;;;;;7.35;4.47;;;17.50;78.50;;;;;;5033379;28;20466;-51
2022/10/26 12:46:49;;;;;;;8.13;4.20;;;17.50;77.70;;;;;;5033049;28;20113;-48
2022/10/26 12:49:57;;;;;;;6.00;4.00;;;17.40;77.20;;;;;;5022753;28;20041;-48
2022/10/26 12:53:00;;;;;;;7.07;4.55;;;17.40;77.70;;;;;;5033283;28;20092;-48
2022/10/26 12:55:44;;;;;;;11.13;4.65;;;17.50;78.50;;;;;;5019502;28;20415;-51
2022/10/26 12:58:25;;;;;;;8.57;4.45;;;17.50;79.40;;;;;;5032308;28;20025;-50
2022/10/26 13:01:02;;;;;;;7.55;3.92;;;17.50;79.60;;;;;;5032002;28;20120;-48
2022/10/26 13:04:05;;;;;;;8.85;4.30;;;17.50;79.10;;;;;;5032053;28;20065;-48
2022/10/26 13:07:05;;;;;;;9.00;5.03;;;17.60;78.40;;;;;;5033006;28;20117;-48
2022/10/26 13:09:35;;;;;;;8.70;3.67;;;17.60;76.80;;;;;;5013633;28;20030;-48
2022/10/26 13:12:03;;;;;;;5.68;3.65;;;17.60;77.10;;;;;;5031307;28;20141;-48
2022/10/26 13:15:00;;;;;;;6.80;4.30;;;17.60;77.50;;;;;;5031902;28;20021;-48
2022/10/26 13:17:30;;;;;;;6.80;3.67;;;17.40;77.80;;;;;;5033170;28;20025;-48
2022/10/26 13:20:03;;;;;;;10.75;4.82;;;17.30;77.80;;;;;;5032696;28;20032;-48